메인 페이지
METAR-TAF:

METAR-TAF

공항 :

마라바, 파라, 브라질

위도: 05-21S, 경도: 049-09W, 고도: 95m

현재 날씨관측

예보는 10분 전, 23:00시(UTC)에 발표되었습니다.
무풍
온도 27°C
습도 62%
기압 1013 hPa
시정 10km 이상
1500m 미만 상공 구름 및 적란운 없음

METAR: SBMA 202300Z 00000KT CAVOK 27/19 Q1013

시각: 20:10 (23:10 UTC)

예보

예보는 8 시간 17분 전, 14:53시(UTC)에 발표되었습니다.
예보 대상 시간: 20일 18시부터 21일 06시까지 (UTC)
5kt
시정 10km 이상
고도 3000ft 상공 구름 보통
전환 중
20일 20시부터 20일 22시까지 (UTC)
kt
시정 10km 이상
1500m 미만 상공 구름 및 적란운 없음

TAF: SBMA 201453Z 2018/2106 10005KT 9999 SCT030 TX35/2018Z TN26/2106Z BECMG 2020/2022 00000KT CAVOK RMK PGU

4,000개 이상의 공항 관측 자료 및 예보 (METAR 및 TAF 보고).

지도상에서 검색 가능한 기상관측소가 노란 점과 빨간 점으로 표시되어 있습니다.

기상관측소 명을 보려면 표시 위로 마우스를 이동하세요.

날씨 관측과 예보를 보려면 클릭하세요.

지도 변경 : 확대하려면 엑스 표시가 있는 녹색 버튼, 축소하려면 빼기 표시가 있는 녹색 버튼, 다음 페이지의 지도를 보려면 녹색 화살표를 클릭하세요.


METAR-TAF: